createdAt,value
2023-01-30T00:01:58.781Z,15.73
2023-01-30T00:04:26.771Z,14.17
2023-01-30T00:06:54.770Z,14.70
2023-01-30T00:09:22.813Z,12.67
2023-01-30T00:11:50.783Z,15.43
2023-01-30T00:14:18.752Z,15.87
2023-01-30T00:16:48.116Z,15.47
2023-01-30T00:19:16.108Z,15.87
2023-01-30T00:21:44.117Z,14.73
2023-01-30T00:24:12.170Z,14.83
2023-01-30T00:26:40.324Z,14.33
2023-01-30T00:29:08.460Z,15.27
2023-01-30T00:31:36.494Z,13.60
2023-01-30T00:34:05.880Z,15.47
2023-01-30T00:36:33.925Z,15.10
2023-01-30T00:39:01.939Z,16.07
2023-01-30T00:41:50.227Z,13.50
2023-01-30T00:44:35.664Z,17.70
2023-01-30T00:47:06.321Z,16.50
2023-01-30T00:49:36.246Z,19.13
2023-01-30T00:52:04.689Z,18.07
2023-01-30T00:54:32.993Z,16.20
2023-01-30T00:57:01.027Z,16.70
2023-01-30T00:59:30.077Z,14.10
2023-01-30T01:01:58.099Z,15.37
2023-01-30T01:04:26.342Z,15.67
2023-01-30T01:06:55.743Z,16.73
2023-01-30T01:09:23.784Z,18.97
2023-01-30T01:11:51.955Z,16.47
2023-01-30T01:14:19.967Z,19.20
2023-01-30T01:16:48.277Z,16.07
2023-01-30T01:19:16.540Z,15.77
2023-01-30T01:21:44.577Z,14.13
2023-01-30T01:24:15.807Z,15.77
2023-01-30T01:26:44.943Z,17.67
2023-01-30T01:29:14.851Z,14.80
2023-01-30T01:31:43.377Z,18.87
2023-01-30T01:34:12.168Z,18.77
2023-01-30T01:36:55.579Z,14.13
2023-01-30T01:39:45.384Z,15.43
2023-01-30T01:42:12.420Z,13.10
2023-01-30T01:45:12.099Z,13.93
2023-01-30T01:47:42.234Z,16.73
2023-01-30T01:50:13.824Z,17.67
2023-01-30T01:52:42.640Z,13.63
2023-01-30T01:55:13.540Z,14.13
2023-01-30T01:57:45.676Z,16.87
2023-01-30T02:00:16.419Z,17.67
2023-01-30T02:02:50.452Z,14.57
2023-01-30T02:05:20.829Z,12.50
2023-01-30T02:07:54.706Z,10.50
2023-01-30T02:10:26.657Z,24.33
2023-01-30T02:12:54.714Z,15.60
2023-01-30T02:15:22.781Z,18.10
2023-01-30T02:17:50.920Z,14.83
2023-01-30T02:20:28.888Z,11.30
2023-01-30T02:23:22.792Z,14.90
2023-01-30T02:26:22.871Z,17.43
2023-01-30T02:29:13.895Z,15.73
2023-01-30T02:31:48.851Z,13.53
2023-01-30T02:34:36.035Z,11.70
2023-01-30T02:37:14.476Z,13.83
2023-01-30T02:39:53.687Z,15.30
2023-01-30T02:42:29.067Z,14.37
2023-01-30T02:45:03.533Z,13.53
2023-01-30T02:47:38.927Z,13.90
2023-01-30T02:50:13.013Z,12.63
2023-01-30T02:52:41.356Z,14.47
2023-01-30T02:55:18.779Z,14.37
2023-01-30T02:57:46.939Z,14.57
2023-01-30T03:00:19.630Z,16.47
2023-01-30T03:03:10.929Z,15.00
2023-01-30T03:05:59.053Z,14.63
2023-01-30T03:08:34.336Z,15.00
2023-01-30T03:11:05.385Z,17.43
2023-01-30T03:13:49.406Z,15.60
2023-01-30T03:16:22.400Z,12.23
2023-01-30T03:18:52.015Z,13.33
2023-01-30T03:21:20.672Z,12.70
2023-01-30T03:23:49.013Z,18.00
2023-01-30T03:26:21.357Z,13.60
2023-01-30T03:28:51.433Z,15.60
2023-01-30T03:31:19.642Z,14.13
2023-01-30T03:33:47.772Z,12.97
2023-01-30T03:36:17.360Z,14.50
2023-01-30T03:38:45.432Z,15.00
2023-01-30T03:41:13.629Z,13.93
2023-01-30T03:43:41.659Z,15.53
2023-01-30T03:46:09.819Z,14.93
2023-01-30T03:48:37.865Z,14.70
2023-01-30T03:51:06.433Z,15.33
2023-01-30T03:53:35.905Z,11.77
2023-01-30T03:56:04.073Z,14.33
2023-01-30T03:58:32.133Z,9.43
2023-01-30T04:01:00.251Z,15.70
2023-01-30T04:03:28.317Z,13.10
2023-01-30T04:05:56.413Z,14.00
2023-01-30T04:08:24.492Z,13.77
2023-01-30T04:10:54.125Z,15.03
2023-01-30T04:13:22.268Z,13.13
2023-01-30T04:15:50.343Z,13.03
2023-01-30T04:18:18.398Z,18.60
2023-01-30T04:20:47.102Z,14.83
2023-01-30T04:23:15.218Z,14.73
2023-01-30T04:25:43.297Z,15.57
2023-01-30T04:28:12.719Z,12.40
2023-01-30T04:30:40.903Z,16.70
2023-01-30T04:33:09.032Z,14.60
2023-01-30T04:35:37.064Z,15.60
2023-01-30T04:38:05.121Z,11.77
2023-01-30T04:40:33.822Z,19.23
2023-01-30T04:43:01.940Z,16.40
2023-01-30T04:45:31.332Z,12.40
2023-01-30T04:47:59.417Z,13.90
2023-01-30T04:50:27.418Z,15.80
2023-01-30T04:52:55.436Z,15.30
2023-01-30T04:55:23.499Z,15.10
2023-01-30T04:57:51.577Z,16.67
2023-01-30T05:00:20.090Z,17.13
2023-01-30T05:02:50.091Z,14.60
2023-01-30T05:05:18.597Z,13.93
2023-01-30T05:07:46.810Z,12.73
2023-01-30T05:10:14.911Z,16.77
2023-01-30T05:12:42.960Z,14.87
2023-01-30T05:15:11.561Z,16.03
2023-01-30T05:17:39.710Z,20.23
2023-01-30T05:20:11.198Z,15.70
2023-01-30T05:22:39.360Z,18.70
2023-01-30T05:25:08.327Z,13.50
2023-01-30T05:27:36.396Z,14.57
2023-01-30T05:30:05.161Z,17.10
2023-01-30T05:32:33.243Z,15.47
2023-01-30T05:35:01.505Z,15.57
2023-01-30T05:37:30.887Z,18.10
2023-01-30T05:39:58.913Z,16.40
2023-01-30T05:42:26.986Z,16.63
2023-01-30T05:44:54.987Z,17.47
2023-01-30T05:47:23.029Z,15.67
2023-01-30T05:49:51.066Z,17.60
2023-01-30T05:52:19.118Z,16.03
2023-01-30T05:54:48.581Z,13.80
2023-01-30T05:57:16.654Z,16.90
2023-01-30T05:59:44.699Z,15.20
2023-01-30T06:02:12.749Z,18.37
2023-01-30T06:04:40.784Z,13.03
2023-01-30T06:07:08.837Z,15.23
2023-01-30T06:09:36.919Z,15.23
2023-01-30T06:12:08.214Z,20.57
2023-01-30T06:14:36.252Z,16.80
2023-01-30T06:17:04.326Z,18.27
2023-01-30T06:19:32.370Z,16.53
2023-01-30T06:22:00.412Z,15.00
2023-01-30T06:24:28.460Z,14.57
2023-01-30T06:26:56.575Z,15.80
2023-01-30T06:29:26.130Z,16.63
2023-01-30T06:31:54.355Z,15.40
2023-01-30T06:34:22.567Z,16.57
2023-01-30T06:36:50.600Z,14.10
2023-01-30T06:39:18.652Z,15.50
2023-01-30T06:41:46.713Z,17.97
2023-01-30T06:44:14.785Z,20.83
2023-01-30T06:46:44.200Z,18.63
2023-01-30T06:49:12.441Z,17.50
2023-01-30T06:51:40.505Z,16.00
2023-01-30T06:54:08.546Z,19.10
2023-01-30T06:56:36.564Z,18.43
2023-01-30T06:59:04.615Z,18.07
2023-01-30T07:01:33.579Z,16.77
2023-01-30T07:04:03.087Z,17.57
2023-01-30T07:06:31.125Z,16.50
2023-01-30T07:08:59.387Z,17.67
2023-01-30T07:11:27.508Z,17.93
2023-01-30T07:13:55.651Z,20.87
2023-01-30T07:16:29.104Z,21.40
2023-01-30T07:18:58.689Z,19.57
2023-01-30T07:21:29.182Z,19.33
2023-01-30T07:23:57.794Z,15.93
2023-01-30T07:26:26.124Z,20.37
2023-01-30T07:28:54.169Z,19.80
2023-01-30T07:31:22.205Z,20.27
2023-01-30T07:33:50.224Z,20.13
2023-01-30T07:36:18.305Z,16.17
2023-01-30T07:38:49.373Z,22.00
2023-01-30T07:41:17.388Z,22.27
2023-01-30T07:43:45.367Z,21.07
2023-01-30T07:46:13.345Z,20.87
2023-01-30T07:48:41.350Z,18.37
2023-01-30T07:51:09.318Z,17.83
2023-01-30T07:53:37.309Z,19.27
2023-01-30T07:56:09.850Z,19.03
2023-01-30T07:58:38.102Z,21.47
2023-01-30T08:01:06.232Z,24.10
2023-01-30T08:03:34.268Z,18.87
2023-01-30T08:06:02.222Z,18.33
2023-01-30T08:08:30.375Z,18.23
2023-01-30T08:10:58.365Z,19.20
2023-01-30T08:13:27.829Z,19.77
2023-01-30T08:15:55.835Z,15.83
2023-01-30T08:18:23.847Z,15.87
2023-01-30T08:20:51.819Z,18.40
2023-01-30T08:23:19.844Z,16.43
2023-01-30T08:25:47.822Z,20.37
2023-01-30T08:28:15.842Z,15.60
2023-01-30T08:30:45.346Z,16.47
2023-01-30T08:33:13.355Z,16.47
2023-01-30T08:35:41.509Z,17.37
2023-01-30T08:38:09.947Z,14.77
2023-01-30T08:40:38.101Z,17.93
2023-01-30T08:43:06.424Z,18.07
2023-01-30T08:45:34.502Z,15.70
2023-01-30T08:48:06.321Z,18.97
2023-01-30T08:50:34.928Z,17.23
2023-01-30T08:53:06.686Z,17.67
2023-01-30T08:55:34.927Z,18.03
2023-01-30T08:58:02.938Z,17.10
2023-01-30T09:00:31.213Z,18.50
2023-01-30T09:03:00.660Z,16.53
2023-01-30T09:05:30.879Z,15.80
2023-01-30T09:07:58.847Z,17.47
2023-01-30T09:10:26.903Z,16.70
2023-01-30T09:12:54.887Z,14.40
2023-01-30T09:15:22.854Z,13.87
2023-01-30T09:17:52.525Z,15.90
2023-01-30T09:20:21.093Z,12.97
2023-01-30T09:22:50.545Z,13.97
2023-01-30T09:25:18.705Z,17.00
2023-01-30T09:27:50.388Z,12.33
2023-01-30T09:30:19.626Z,10.57
2023-01-30T09:32:47.868Z,11.97
2023-01-30T09:35:16.197Z,9.30
2023-01-30T09:37:55.344Z,12.53
2023-01-30T09:40:27.762Z,11.60
2023-01-30T09:43:27.440Z,10.57
2023-01-30T09:46:05.269Z,10.43
2023-01-30T09:48:42.713Z,9.20
2023-01-30T09:51:27.311Z,10.80
2023-01-30T09:54:10.941Z,9.13
2023-01-30T09:56:39.080Z,9.77
2023-01-30T09:59:07.893Z,9.83
2023-01-30T10:01:49.641Z,11.23
2023-01-30T10:04:24.651Z,9.53
2023-01-30T10:07:00.528Z,9.70
2023-01-30T10:09:40.309Z,11.20
2023-01-30T10:12:27.844Z,11.83
2023-01-30T10:15:16.883Z,18.93
2023-01-30T10:17:59.456Z,11.57
2023-01-30T10:20:36.264Z,10.40
2023-01-30T10:23:17.044Z,7.67
2023-01-30T10:25:49.419Z,8.47
2023-01-30T10:28:22.813Z,8.77
2023-01-30T10:30:56.280Z,6.10
2023-01-30T10:33:28.639Z,8.17
2023-01-30T10:36:02.731Z,5.60
2023-01-30T10:38:37.460Z,8.13
2023-01-30T10:41:14.407Z,5.73
2023-01-30T10:43:47.979Z,6.83
2023-01-30T10:46:32.817Z,4.60
2023-01-30T10:49:03.896Z,4.87
2023-01-30T10:51:44.159Z,6.47
2023-01-30T10:54:19.765Z,4.83
2023-01-30T10:56:57.203Z,6.87
2023-01-30T10:59:31.864Z,5.40
2023-01-30T11:02:03.811Z,6.77
2023-01-30T11:04:37.388Z,6.60
2023-01-30T11:07:05.641Z,5.57
2023-01-30T11:09:41.595Z,7.47
2023-01-30T11:12:11.333Z,4.73
2023-01-30T11:14:54.959Z,7.90
2023-01-30T11:17:30.022Z,6.00
2023-01-30T11:20:03.222Z,6.53
2023-01-30T11:22:34.309Z,3.80
2023-01-30T11:25:04.469Z,4.73
2023-01-30T11:27:35.031Z,4.60
2023-01-30T11:30:16.391Z,4.20
2023-01-30T11:32:47.386Z,4.83
2023-01-30T11:35:27.242Z,7.77
2023-01-30T11:37:55.581Z,6.63
2023-01-30T11:40:29.598Z,8.87
2023-01-30T11:43:05.773Z,4.03
2023-01-30T11:45:39.633Z,7.20
2023-01-30T11:48:31.662Z,4.37
2023-01-30T11:51:07.071Z,5.33
2023-01-30T11:53:39.093Z,4.87
2023-01-30T11:56:13.032Z,7.10
2023-01-30T11:58:46.293Z,5.73
2023-01-30T12:01:16.215Z,7.57
2023-01-30T12:03:49.589Z,8.87
2023-01-30T12:06:25.919Z,5.43
2023-01-30T12:08:56.266Z,9.87
2023-01-30T12:11:42.249Z,4.57
2023-01-30T12:14:21.352Z,6.30
2023-01-30T12:16:57.135Z,9.00
2023-01-30T12:19:35.057Z,7.93
2023-01-30T12:22:11.779Z,3.57
2023-01-30T12:24:44.573Z,5.40
2023-01-30T12:27:18.733Z,7.67
2023-01-30T12:29:58.443Z,3.67
2023-01-30T12:32:28.957Z,7.20
2023-01-30T12:34:57.371Z,7.83
2023-01-30T12:37:41.432Z,7.67
2023-01-30T12:40:22.168Z,5.63
2023-01-30T12:43:04.535Z,4.87
2023-01-30T12:45:37.320Z,8.87
2023-01-30T12:48:35.667Z,4.60
2023-01-30T12:51:19.289Z,5.73
2023-01-30T12:53:59.387Z,4.53
2023-01-30T12:56:46.928Z,4.03
2023-01-30T12:59:21.457Z,4.07
2023-01-30T13:02:08.909Z,6.00
2023-01-30T13:04:56.265Z,7.60
2023-01-30T13:07:39.704Z,1.93
2023-01-30T13:10:16.418Z,4.47
2023-01-30T13:12:51.822Z,4.27
2023-01-30T13:15:26.386Z,3.40
2023-01-30T13:18:06.667Z,2.10
2023-01-30T13:20:48.641Z,7.23
2023-01-30T13:23:19.555Z,3.57
2023-01-30T13:25:56.245Z,7.50
2023-01-30T13:28:27.471Z,5.20
2023-01-30T13:30:57.173Z,5.07
2023-01-30T13:33:31.897Z,6.07
2023-01-30T13:36:11.262Z,7.63
2023-01-30T13:38:49.272Z,6.33
2023-01-30T13:41:19.697Z,5.20
2023-01-30T13:43:53.122Z,7.73
2023-01-30T13:46:25.505Z,6.87
2023-01-30T13:49:07.553Z,5.50
2023-01-30T13:51:49.108Z,6.57
2023-01-30T13:54:40.250Z,7.13
2023-01-30T13:57:17.643Z,6.20
2023-01-30T14:00:07.449Z,6.73
2023-01-30T14:02:35.505Z,9.00
2023-01-30T14:05:05.893Z,5.63
2023-01-30T14:07:40.149Z,6.40
2023-01-30T14:10:20.344Z,7.83
2023-01-30T14:12:50.449Z,6.33
2023-01-30T14:15:29.007Z,9.53
2023-01-30T14:18:07.420Z,6.17
2023-01-30T14:20:38.545Z,5.90
2023-01-30T14:23:20.139Z,4.73
2023-01-30T14:25:50.598Z,5.80
2023-01-30T14:28:48.349Z,10.53
2023-01-30T14:31:55.674Z,9.03
2023-01-30T14:34:44.523Z,6.90
2023-01-30T14:37:31.044Z,6.03
2023-01-30T14:39:59.814Z,6.20
2023-01-30T14:42:29.954Z,9.23
2023-01-30T14:45:03.615Z,6.33
2023-01-30T14:47:42.208Z,5.67
2023-01-30T14:50:21.760Z,7.70
2023-01-30T14:52:55.822Z,7.23
2023-01-30T14:55:29.620Z,10.83
2023-01-30T14:58:01.504Z,6.67
2023-01-30T15:00:32.475Z,8.60
2023-01-30T15:03:03.378Z,3.63
2023-01-30T15:05:37.116Z,6.73
2023-01-30T15:08:10.285Z,5.13
2023-01-30T15:11:04.300Z,3.23
2023-01-30T15:13:47.434Z,3.23
2023-01-30T15:16:42.014Z,2.60
2023-01-30T15:19:32.800Z,6.20
2023-01-30T15:22:12.600Z,5.50
2023-01-30T15:25:18.687Z,4.30
2023-01-30T15:28:00.743Z,7.00
2023-01-30T15:30:44.576Z,9.33
2023-01-30T15:33:29.532Z,2.33
2023-01-30T15:35:59.023Z,4.33
2023-01-30T15:38:30.442Z,4.60
2023-01-30T15:41:02.739Z,6.60
2023-01-30T15:43:52.068Z,1.47
2023-01-30T15:46:27.383Z,2.23
2023-01-30T15:49:24.566Z,4.17
2023-01-30T15:51:53.708Z,8.80
2023-01-30T15:54:24.882Z,4.70
2023-01-30T15:56:57.502Z,3.37
2023-01-30T15:59:32.771Z,6.80
2023-01-30T16:02:03.259Z,4.10
2023-01-30T16:04:32.080Z,6.30
2023-01-30T16:07:00.970Z,5.03
2023-01-30T16:09:29.110Z,3.57
2023-01-30T16:11:58.574Z,5.33
2023-01-30T16:14:26.638Z,6.23
2023-01-30T16:16:59.054Z,6.60
2023-01-30T16:19:29.858Z,5.97
2023-01-30T16:22:01.974Z,7.80
2023-01-30T16:24:32.753Z,6.93
2023-01-30T16:27:06.289Z,8.13
2023-01-30T16:29:45.046Z,8.23
2023-01-30T16:32:15.426Z,5.13
2023-01-30T16:34:43.487Z,4.40
2023-01-30T16:37:27.580Z,3.93
2023-01-30T16:40:04.871Z,8.63
2023-01-30T16:42:34.483Z,4.63
2023-01-30T16:45:35.139Z,6.70
2023-01-30T16:48:25.525Z,5.80
2023-01-30T16:51:20.639Z,2.97
2023-01-30T16:53:53.882Z,9.43
2023-01-30T16:56:22.126Z,9.17
2023-01-30T16:58:55.173Z,10.90
2023-01-30T17:01:24.660Z,4.73
2023-01-30T17:04:01.630Z,7.87
2023-01-30T17:06:37.245Z,6.63
2023-01-30T17:09:07.634Z,8.93
2023-01-30T17:11:37.768Z,9.40
2023-01-30T17:14:20.585Z,8.50
2023-01-30T17:16:49.059Z,8.00
2023-01-30T17:19:17.081Z,8.63
2023-01-30T17:21:49.319Z,8.90
2023-01-30T17:24:19.705Z,8.57
2023-01-30T17:26:49.880Z,5.53
2023-01-30T17:29:41.000Z,8.20
2023-01-30T17:32:12.150Z,7.37
2023-01-30T17:34:41.405Z,4.47
2023-01-30T17:37:15.934Z,4.57
2023-01-30T17:39:43.977Z,1.93
2023-01-30T17:42:12.734Z,2.60
2023-01-30T17:44:42.518Z,3.00
2023-01-30T17:47:12.168Z,3.33
2023-01-30T17:49:40.483Z,8.83
2023-01-30T17:52:08.743Z,4.27
2023-01-30T17:54:36.780Z,8.37
2023-01-30T17:57:09.673Z,5.60
2023-01-30T17:59:37.738Z,5.03
2023-01-30T18:02:10.345Z,8.37
2023-01-30T18:04:40.039Z,3.57
2023-01-30T18:07:12.551Z,9.57
2023-01-30T18:09:40.652Z,6.77
2023-01-30T18:12:08.790Z,4.70
2023-01-30T18:14:36.813Z,6.33
2023-01-30T18:17:06.472Z,8.23
2023-01-30T18:19:34.591Z,6.80
2023-01-30T18:22:02.614Z,6.80
2023-01-30T18:24:30.808Z,10.93
2023-01-30T18:27:01.495Z,3.60
2023-01-30T18:29:30.054Z,9.57
2023-01-30T18:32:03.540Z,7.97
2023-01-30T18:34:33.744Z,2.13
2023-01-30T18:37:01.828Z,5.17
2023-01-30T18:39:31.891Z,2.10
2023-01-30T18:42:02.062Z,7.67
2023-01-30T18:44:30.185Z,12.40
2023-01-30T18:46:58.345Z,5.90
2023-01-30T18:49:26.632Z,6.67
2023-01-30T18:51:56.098Z,9.23
2023-01-30T18:54:24.189Z,7.80
2023-01-30T18:56:52.298Z,9.07
2023-01-30T18:59:20.413Z,8.07
2023-01-30T19:01:48.525Z,10.43
2023-01-30T19:04:16.663Z,3.83
2023-01-30T19:06:45.121Z,8.70
2023-01-30T19:09:16.361Z,9.93
2023-01-30T19:12:02.072Z,10.60
2023-01-30T19:14:30.215Z,9.83
2023-01-30T19:16:58.288Z,7.53
2023-01-30T19:19:27.246Z,12.60
2023-01-30T19:21:55.314Z,10.13
2023-01-30T19:24:25.099Z,12.67
2023-01-30T19:26:53.161Z,9.17
2023-01-30T19:29:21.346Z,11.03
2023-01-30T19:31:49.443Z,10.07
2023-01-30T19:34:17.684Z,22.80
2023-01-30T19:36:45.762Z,10.80
2023-01-30T19:39:13.699Z,7.53
2023-01-30T19:41:43.330Z,9.73
2023-01-30T19:44:12.859Z,12.30
2023-01-30T19:46:41.674Z,5.80
2023-01-30T19:49:11.550Z,13.23
2023-01-30T19:51:40.609Z,14.53
2023-01-30T19:54:10.852Z,15.70
2023-01-30T19:56:41.830Z,13.07
2023-01-30T19:59:13.953Z,12.37
2023-01-30T20:01:41.974Z,10.80
2023-01-30T20:04:09.972Z,15.07
2023-01-30T20:06:38.484Z,19.20
2023-01-30T20:09:09.505Z,14.13
2023-01-30T20:11:39.054Z,6.90
2023-01-30T20:14:07.354Z,11.97
2023-01-30T20:16:37.437Z,13.30
2023-01-30T20:19:08.153Z,16.63
2023-01-30T20:21:37.126Z,10.10
2023-01-30T20:24:06.374Z,30.40
2023-01-30T20:26:36.384Z,15.50
2023-01-30T20:29:05.241Z,23.70
2023-01-30T20:31:34.663Z,13.20
2023-01-30T20:34:06.176Z,9.43
2023-01-30T20:36:34.794Z,16.33
2023-01-30T20:39:04.348Z,18.87
2023-01-30T20:41:35.590Z,17.30
2023-01-30T20:44:03.800Z,18.70
2023-01-30T20:46:35.496Z,15.97
2023-01-30T20:49:04.872Z,13.00
2023-01-30T20:51:34.846Z,8.40
2023-01-30T20:54:05.409Z,12.23
2023-01-30T20:56:35.094Z,15.67
2023-01-30T20:59:04.682Z,15.20
2023-01-30T21:01:33.649Z,14.60
2023-01-30T21:04:08.321Z,20.13
2023-01-30T21:06:43.928Z,20.50
2023-01-30T21:09:15.168Z,13.60
2023-01-30T21:11:43.186Z,10.07
2023-01-30T21:14:11.173Z,8.70
2023-01-30T21:16:39.703Z,12.33
2023-01-30T21:19:15.110Z,14.87
2023-01-30T21:21:50.408Z,10.07
2023-01-30T21:24:20.997Z,17.13
2023-01-30T21:26:49.606Z,16.80
2023-01-30T21:29:20.919Z,17.43
2023-01-30T21:31:49.183Z,10.20
2023-01-30T21:34:18.622Z,7.50
2023-01-30T21:37:06.990Z,13.80
2023-01-30T21:39:52.796Z,12.80
2023-01-30T21:42:38.343Z,13.90
2023-01-30T21:45:07.533Z,9.00
2023-01-30T21:47:35.802Z,13.07
2023-01-30T21:50:06.013Z,14.40
2023-01-30T21:52:34.087Z,10.23
2023-01-30T21:55:02.116Z,9.50
2023-01-30T21:57:30.181Z,12.90
2023-01-30T21:59:58.187Z,9.40
2023-01-30T22:02:26.212Z,15.73
2023-01-30T22:04:54.809Z,45.13
2023-01-30T22:07:24.235Z,6.47
2023-01-30T22:09:52.250Z,12.80
2023-01-30T22:12:20.316Z,10.07
2023-01-30T22:14:48.278Z,8.63
2023-01-30T22:17:16.239Z,8.07
2023-01-30T22:19:44.238Z,6.27
2023-01-30T22:22:12.306Z,11.00
2023-01-30T22:24:41.655Z,7.43
2023-01-30T22:27:09.627Z,17.43
2023-01-30T22:29:37.617Z,7.27
2023-01-30T22:32:06.260Z,10.00
2023-01-30T22:34:35.965Z,6.77
2023-01-30T22:37:04.111Z,14.07
2023-01-30T22:39:32.059Z,5.67
2023-01-30T22:42:01.428Z,8.97
2023-01-30T22:44:29.411Z,12.57
2023-01-30T22:46:57.488Z,10.33
2023-01-30T22:49:25.615Z,9.00
2023-01-30T22:51:53.612Z,5.83
2023-01-30T22:54:21.611Z,11.33
2023-01-30T22:56:53.333Z,10.53
2023-01-30T22:59:22.876Z,13.33
2023-01-30T23:01:51.955Z,15.47
2023-01-30T23:04:21.580Z,10.23
2023-01-30T23:06:51.387Z,8.63
2023-01-30T23:09:22.132Z,15.50
2023-01-30T23:12:06.394Z,8.93
2023-01-30T23:14:36.890Z,15.33
2023-01-30T23:17:26.322Z,14.77
2023-01-30T23:19:53.418Z,15.50
2023-01-30T23:22:21.714Z,12.33
2023-01-30T23:24:51.056Z,9.70
2023-01-30T23:27:19.245Z,13.30
2023-01-30T23:29:48.753Z,7.73
2023-01-30T23:32:19.185Z,4.73
2023-01-30T23:34:47.369Z,9.33
2023-01-30T23:37:15.367Z,12.50
2023-01-30T23:39:43.345Z,9.90
2023-01-30T23:42:11.410Z,18.13
2023-01-30T23:44:40.007Z,13.87
2023-01-30T23:47:09.481Z,9.00
2023-01-30T23:49:37.834Z,18.37
2023-01-30T23:52:06.118Z,8.70
2023-01-30T23:54:34.095Z,12.43
2023-01-30T23:57:02.056Z,10.30
2023-01-30T23:59:30.078Z,13.60
